createdAt,value
2019-06-01T00:00:49.476Z,99785.59
2019-06-01T00:03:15.487Z,99760.50
2019-06-01T00:05:42.489Z,99765.88
2019-06-01T00:08:09.053Z,99759.56
2019-06-01T00:10:35.107Z,99763.25
2019-06-01T00:13:01.296Z,99762.87
2019-06-01T00:15:27.740Z,99752.52
2019-06-01T00:17:53.785Z,99759.14
2019-06-01T00:20:19.816Z,99753.12
2019-06-01T00:22:45.869Z,99758.37
2019-06-01T00:25:12.020Z,99760.91
2019-06-01T00:27:38.063Z,99753.50
2019-06-01T00:30:05.994Z,99752.84
2019-06-01T00:32:32.076Z,99753.23
2019-06-01T00:34:58.114Z,99756.92
2019-06-01T00:37:24.378Z,99760.09
2019-06-01T00:39:50.378Z,99756.14
2019-06-01T00:42:17.207Z,99744.23
2019-06-01T00:44:44.307Z,99753.03
2019-06-01T00:47:10.860Z,99753.54
2019-06-01T00:49:36.805Z,99749.83
2019-06-01T00:52:03.316Z,99756.59
2019-06-01T00:54:29.779Z,99750.58
2019-06-01T00:56:55.813Z,99751.59
2019-06-01T00:59:21.713Z,99757.06
2019-06-01T01:01:47.890Z,99760.27
2019-06-01T01:04:14.298Z,99757.06
2019-06-01T01:06:40.487Z,99764.59
2019-06-01T01:09:08.800Z,99762.77
2019-06-01T01:11:36.082Z,99770.18
2019-06-01T01:14:04.949Z,99753.55
2019-06-01T01:16:32.215Z,99759.05
2019-06-01T01:18:58.572Z,99757.37
2019-06-01T01:21:24.625Z,99754.30
2019-06-01T01:23:50.637Z,99756.56
2019-06-01T01:26:17.055Z,99751.20
2019-06-01T01:28:43.696Z,99753.47
2019-06-01T01:31:13.767Z,99752.92
2019-06-01T01:33:37.941Z,99754.41
2019-06-01T01:36:04.685Z,99758.23
2019-06-01T01:38:30.894Z,99759.09
2019-06-01T01:40:59.258Z,99763.41
2019-06-01T01:43:24.921Z,99635.42
2019-06-01T01:45:51.146Z,99763.19
2019-06-01T01:48:17.557Z,99765.98
2019-06-01T01:50:43.570Z,99763.75
2019-06-01T01:53:10.118Z,99762.29
2019-06-01T01:55:36.965Z,99764.92
2019-06-01T01:58:03.590Z,99771.91
2019-06-01T02:00:42.481Z,99760.76
2019-06-01T02:03:09.857Z,99757.42
2019-06-01T02:05:36.292Z,99759.55
2019-06-01T02:08:03.727Z,99758.75
2019-06-01T02:10:29.767Z,99764.02
2019-06-01T02:12:55.909Z,99762.42
2019-06-01T02:15:22.353Z,99771.44
2019-06-01T02:17:48.309Z,99766.38
2019-06-01T02:20:14.322Z,99759.44
2019-06-01T02:22:40.597Z,99763.23
2019-06-01T02:25:06.742Z,99756.28
2019-06-01T02:27:32.838Z,99760.86
2019-06-01T02:29:59.460Z,99757.64
2019-06-01T02:32:25.566Z,99755.55
2019-06-01T02:34:51.898Z,99750.66
2019-06-01T02:37:18.089Z,99753.39
2019-06-01T02:39:44.016Z,99747.38
2019-06-01T02:42:12.441Z,99757.89
2019-06-01T02:44:38.462Z,99756.29
2019-06-01T02:47:06.380Z,99756.84
2019-06-01T02:49:32.565Z,99759.88
2019-06-01T02:51:59.285Z,99750.41
2019-06-01T02:54:25.460Z,99747.81
2019-06-01T02:56:51.571Z,99707.36
2019-06-01T02:59:18.194Z,99748.80
2019-06-01T03:01:56.680Z,99708.81
2019-06-01T03:04:13.264Z,99527.38
2019-06-01T03:06:41.481Z,99741.17
2019-06-01T03:09:08.921Z,99751.80
2019-06-01T03:11:37.139Z,99754.32
2019-06-01T03:14:06.644Z,99746.70
2019-06-01T03:16:35.881Z,99752.30
2019-06-01T03:19:02.144Z,99754.81
2019-06-01T03:21:29.781Z,99751.88
2019-06-01T03:24:05.982Z,99746.12
2019-06-01T03:26:38.861Z,99743.55
2019-06-01T03:29:07.137Z,99748.09
2019-06-01T03:31:33.434Z,99745.37
2019-06-01T03:34:01.314Z,99751.17
2019-06-01T03:36:27.883Z,99753.68
2019-06-01T03:38:54.124Z,99747.05
2019-06-01T03:41:20.562Z,99744.86
2019-06-01T03:43:46.853Z,99741.28
2019-06-01T03:46:13.240Z,99753.88
2019-06-01T03:48:39.285Z,99750.33
2019-06-01T03:51:05.795Z,99755.16
2019-06-01T03:53:31.935Z,99754.66
2019-06-01T03:55:58.057Z,99751.08
2019-06-01T03:58:24.485Z,99756.06
2019-06-01T04:00:50.543Z,99551.91
2019-06-01T04:03:16.589Z,99758.24
2019-06-01T04:05:42.946Z,99763.84
2019-06-01T04:08:09.675Z,99772.98
2019-06-01T04:10:36.042Z,99771.09
2019-06-01T04:13:03.408Z,99769.98
2019-06-01T04:15:29.918Z,99774.97
2019-06-01T04:17:56.397Z,99771.19
2019-06-01T04:20:22.558Z,99775.19
2019-06-01T04:22:48.752Z,99777.66
2019-06-01T04:25:15.093Z,99590.28
2019-06-01T04:27:41.358Z,99789.82
2019-06-01T04:30:07.705Z,99787.17
2019-06-01T04:32:48.854Z,99788.09
2019-06-01T04:35:09.030Z,99789.28
2019-06-01T04:37:35.559Z,99788.30
2019-06-01T04:40:03.318Z,99784.52
2019-06-01T04:42:30.071Z,99791.44
2019-06-01T04:44:56.553Z,99795.85
2019-06-01T04:47:22.734Z,99794.41
2019-06-01T04:49:48.672Z,99794.45
2019-06-01T04:52:15.274Z,99793.91
2019-06-01T04:54:41.562Z,99799.09
2019-06-01T04:57:08.821Z,99799.64
2019-06-01T04:59:37.800Z,99793.45
2019-06-01T05:02:05.626Z,99796.48
2019-06-01T05:04:32.066Z,99792.48
2019-06-01T05:06:58.131Z,99789.88
2019-06-01T05:09:24.544Z,99794.70
2019-06-01T05:11:50.461Z,99797.83
2019-06-01T05:14:16.741Z,99795.34
2019-06-01T05:16:43.291Z,99795.34
2019-06-01T05:19:10.152Z,99794.41
2019-06-01T05:21:36.502Z,99789.10
2019-06-01T05:24:02.928Z,99788.94
2019-06-01T05:26:29.190Z,99591.86
2019-06-01T05:28:55.314Z,99797.98
2019-06-01T05:31:25.264Z,99792.05
2019-06-01T05:33:49.831Z,99804.98
2019-06-01T05:36:16.299Z,99796.88
2019-06-01T05:38:42.993Z,99799.35
2019-06-01T05:41:10.350Z,99793.70
2019-06-01T05:43:37.276Z,99788.55
2019-06-01T05:46:03.420Z,99796.41
2019-06-01T05:48:30.752Z,99789.46
2019-06-01T05:50:56.991Z,99792.88
2019-06-01T05:53:23.469Z,99795.52
2019-06-01T05:55:49.717Z,99794.43
2019-06-01T05:58:17.259Z,99788.81
2019-06-01T06:00:43.701Z,99799.41
2019-06-01T06:03:12.811Z,99787.62
2019-06-01T06:05:38.109Z,99790.50
2019-06-01T06:08:05.150Z,99792.99
2019-06-01T06:10:33.305Z,99788.53
2019-06-01T06:12:59.522Z,99796.67
2019-06-01T06:15:26.007Z,99795.41
2019-06-01T06:17:52.040Z,99796.34
2019-06-01T06:20:18.177Z,99788.73
2019-06-01T06:22:44.495Z,99789.30
2019-06-01T06:25:10.766Z,99791.39
2019-06-01T06:27:36.714Z,99793.77
2019-06-01T06:30:06.771Z,99798.84
2019-06-01T06:32:32.845Z,99786.44
2019-06-01T06:34:58.993Z,99790.99
2019-06-01T06:37:25.413Z,99787.48
2019-06-01T06:39:51.650Z,99791.89
2019-06-01T06:42:18.593Z,99792.03
2019-06-01T06:44:45.038Z,99611.46
2019-06-01T06:47:11.198Z,99789.08
2019-06-01T06:49:37.471Z,99795.56
2019-06-01T06:52:03.767Z,99795.37
2019-06-01T06:54:30.018Z,99793.14
2019-06-01T06:56:56.034Z,99792.20
2019-06-01T06:59:22.511Z,99794.06
2019-06-01T07:01:48.715Z,99796.02
2019-06-01T07:04:14.811Z,99788.77
2019-06-01T07:06:40.949Z,99794.89
2019-06-01T07:09:07.416Z,99794.15
2019-06-01T07:11:33.451Z,99789.78
2019-06-01T07:13:59.594Z,99794.42
2019-06-01T07:16:25.659Z,99794.80
2019-06-01T07:18:52.151Z,99791.80
2019-06-01T07:21:19.470Z,99788.89
2019-06-01T07:23:45.956Z,99785.30
2019-06-01T07:26:12.474Z,99784.45
2019-06-01T07:28:38.991Z,99786.58
2019-06-01T07:31:05.031Z,99780.91
2019-06-01T07:33:31.151Z,99787.23
2019-06-01T07:35:57.186Z,99780.30
2019-06-01T07:38:24.681Z,99787.44
2019-06-01T07:40:51.570Z,99785.71
2019-06-01T07:43:17.591Z,99791.61
2019-06-01T07:45:44.270Z,99787.02
2019-06-01T07:48:10.289Z,99783.27
2019-06-01T07:50:36.407Z,99790.49
2019-06-01T07:53:03.278Z,99791.05
2019-06-01T07:55:29.741Z,99788.72
2019-06-01T07:57:56.820Z,99793.29
2019-06-01T08:00:25.589Z,99786.47
2019-06-01T08:02:52.580Z,99780.05
2019-06-01T08:05:18.669Z,99780.17
2019-06-01T08:07:45.727Z,99781.53
2019-06-01T08:10:11.867Z,99775.59
2019-06-01T08:12:38.834Z,99776.16
2019-06-01T08:15:07.510Z,99775.34
2019-06-01T08:17:33.864Z,99778.56
2019-06-01T08:20:00.045Z,99785.59
2019-06-01T08:22:27.995Z,99776.84
2019-06-01T08:24:54.369Z,99767.16
2019-06-01T08:27:20.473Z,99774.27
2019-06-01T08:29:47.826Z,99770.98
2019-06-01T08:32:14.121Z,99765.66
2019-06-01T08:34:40.731Z,99776.31
2019-06-01T08:37:06.822Z,99767.03
2019-06-01T08:39:34.582Z,99767.41
2019-06-01T08:42:00.808Z,99768.81
2019-06-01T08:44:27.791Z,99771.16
2019-06-01T08:46:54.034Z,99768.77
2019-06-01T08:49:20.555Z,99762.32
2019-06-01T08:51:46.765Z,99610.72
2019-06-01T08:54:12.939Z,99759.10
2019-06-01T08:56:39.049Z,99764.75
2019-06-01T08:59:05.203Z,99756.72
2019-06-01T09:01:34.614Z,99768.33
2019-06-01T09:04:01.436Z,99596.99
2019-06-01T09:06:29.107Z,99754.31
2019-06-01T09:08:57.941Z,99625.47
2019-06-01T09:11:25.141Z,99728.77
2019-06-01T09:13:52.476Z,99742.69
2019-06-01T09:16:19.760Z,99742.09
2019-06-01T09:18:46.448Z,99736.45
2019-06-01T09:21:14.771Z,99738.12
2019-06-01T09:23:41.403Z,99747.56
2019-06-01T09:26:08.107Z,99730.73
2019-06-01T09:28:36.073Z,99735.56
2019-06-01T09:31:03.255Z,99733.81
2019-06-01T09:33:30.124Z,99731.84
2019-06-01T09:35:58.163Z,99500.61
2019-06-01T09:38:25.474Z,99721.48
2019-06-01T09:40:51.841Z,99720.60
2019-06-01T09:43:17.990Z,99735.02
2019-06-01T09:45:44.603Z,99729.19
2019-06-01T09:48:11.058Z,99727.53
2019-06-01T09:50:37.749Z,99724.72
2019-06-01T09:53:03.824Z,99725.23
2019-06-01T09:55:31.406Z,99723.70
2019-06-01T09:57:58.432Z,99717.91
2019-06-01T10:00:25.771Z,99715.52
2019-06-01T10:02:52.548Z,99719.94
2019-06-01T10:05:19.358Z,99711.67
2019-06-01T10:07:45.393Z,99716.98
2019-06-01T10:10:11.529Z,99714.70
2019-06-01T10:12:38.238Z,99717.83
2019-06-01T10:15:05.679Z,99709.58
2019-06-01T10:17:33.297Z,99713.02
2019-06-01T10:20:00.424Z,99714.45
2019-06-01T10:22:26.927Z,99720.17
2019-06-01T10:24:53.294Z,99575.41
2019-06-01T10:27:19.817Z,99706.80
2019-06-01T10:29:46.447Z,99564.73
2019-06-01T10:32:13.146Z,99702.45
2019-06-01T10:34:39.911Z,99704.44
2019-06-01T10:37:06.082Z,99706.34
2019-06-01T10:39:33.035Z,99704.18
2019-06-01T10:41:59.582Z,99704.91
2019-06-01T10:44:25.927Z,99709.80
2019-06-01T10:46:52.584Z,99699.44
2019-06-01T10:49:18.744Z,99691.31
2019-06-01T10:51:45.086Z,99693.42
2019-06-01T10:54:11.322Z,99688.81
2019-06-01T10:56:38.503Z,99694.06
2019-06-01T10:59:05.138Z,99552.88
2019-06-01T11:01:34.681Z,99681.27
2019-06-01T11:04:01.214Z,99676.02
2019-06-01T11:06:37.772Z,99679.61
2019-06-01T11:08:58.700Z,99673.58
2019-06-01T11:11:25.898Z,99671.14
2019-06-01T11:13:52.456Z,99666.93
2019-06-01T11:16:19.674Z,99658.61
2019-06-01T11:18:46.053Z,99661.73
2019-06-01T11:21:16.287Z,99659.80
2019-06-01T11:23:46.152Z,99665.22
2019-06-01T11:26:11.334Z,99658.58
2019-06-01T11:28:39.957Z,99658.97
2019-06-01T11:31:07.373Z,99669.42
2019-06-01T11:33:34.247Z,99661.73
2019-06-01T11:36:00.969Z,99658.91
2019-06-01T11:38:27.089Z,99639.20
2019-06-01T11:40:53.788Z,99643.66
2019-06-01T11:43:19.991Z,99641.75
2019-06-01T11:45:46.259Z,99640.19
2019-06-01T11:48:13.517Z,99639.94
2019-06-01T11:50:41.171Z,99646.27
2019-06-01T11:53:07.616Z,99640.91
2019-06-01T11:55:35.133Z,99630.05
2019-06-01T11:58:01.455Z,99502.73
2019-06-01T12:00:27.714Z,99628.09
2019-06-01T12:02:53.755Z,99626.39
2019-06-01T12:05:19.884Z,99623.13
2019-06-01T12:07:46.378Z,99620.00
2019-06-01T12:10:12.965Z,99628.70
2019-06-01T12:12:40.216Z,99616.14
2019-06-01T12:15:06.898Z,99485.98
2019-06-01T12:17:33.704Z,99612.91
2019-06-01T12:19:59.909Z,99620.64
2019-06-01T12:22:25.965Z,99607.56
2019-06-01T12:24:52.176Z,99600.66
2019-06-01T12:27:18.229Z,99597.89
2019-06-01T12:29:45.875Z,99598.81
2019-06-01T12:32:12.116Z,99603.31
2019-06-01T12:34:39.908Z,99599.94
2019-06-01T12:37:06.609Z,99592.68
2019-06-01T12:39:32.712Z,99471.70
2019-06-01T12:41:58.895Z,99588.30
2019-06-01T12:44:25.385Z,99443.23
2019-06-01T12:46:52.973Z,99586.28
2019-06-01T12:49:19.470Z,99592.56
2019-06-01T12:51:46.919Z,99582.78
2019-06-01T12:54:13.754Z,99570.62
2019-06-01T12:56:40.770Z,99570.45
2019-06-01T12:59:06.906Z,99572.52
2019-06-01T13:01:32.951Z,99570.17
2019-06-01T13:03:59.008Z,99559.02
2019-06-01T13:06:25.612Z,99558.49
2019-06-01T13:08:51.667Z,99562.92
2019-06-01T13:11:17.800Z,99546.87
2019-06-01T13:13:45.144Z,99540.82
2019-06-01T13:16:11.570Z,99542.41
2019-06-01T13:18:37.699Z,99540.09
2019-06-01T13:21:04.321Z,99534.50
2019-06-01T13:23:30.621Z,99409.20
2019-06-01T13:25:56.651Z,99525.94
2019-06-01T13:28:37.351Z,99537.34
2019-06-01T13:30:51.179Z,99528.77
2019-06-01T13:33:18.555Z,99531.34
2019-06-01T13:35:46.454Z,99528.02
2019-06-01T13:38:12.798Z,99518.58
2019-06-01T13:40:38.905Z,99519.93
2019-06-01T13:43:05.427Z,99507.87
2019-06-01T13:45:31.685Z,99512.57
2019-06-01T13:47:58.846Z,99520.20
2019-06-01T13:50:25.222Z,99503.34
2019-06-01T13:52:52.173Z,99509.91
2019-06-01T13:55:18.478Z,99514.47
2019-06-01T13:57:46.160Z,99508.87
2019-06-01T14:00:15.395Z,99500.41
2019-06-01T14:02:40.858Z,99500.86
2019-06-01T14:05:07.475Z,99507.84
2019-06-01T14:07:33.667Z,99509.05
2019-06-01T14:10:01.511Z,99499.90
2019-06-01T14:12:27.998Z,99495.34
2019-06-01T14:14:55.605Z,99495.82
2019-06-01T14:17:25.100Z,99496.69
2019-06-01T14:19:53.812Z,99487.85
2019-06-01T14:22:20.368Z,99494.03
2019-06-01T14:24:57.291Z,99488.33
2019-06-01T14:27:14.721Z,99495.67
2019-06-01T14:29:40.937Z,99487.89
2019-06-01T14:32:07.661Z,99490.25
2019-06-01T14:34:33.639Z,99481.70
2019-06-01T14:37:00.024Z,99483.86
2019-06-01T14:39:25.972Z,99482.28
2019-06-01T14:41:53.506Z,99477.44
2019-06-01T14:44:20.788Z,99486.41
2019-06-01T14:46:54.997Z,99478.73
2019-06-01T14:49:14.847Z,99479.94
2019-06-01T14:51:41.708Z,99480.50
2019-06-01T14:54:07.760Z,99483.39
2019-06-01T14:56:33.811Z,99479.73
2019-06-01T14:59:02.160Z,99471.05
2019-06-01T15:01:32.731Z,99482.33
2019-06-01T15:03:56.448Z,99475.28
2019-06-01T15:06:22.815Z,99476.43
2019-06-01T15:09:07.661Z,99472.06
2019-06-01T15:11:17.713Z,99347.00
2019-06-01T15:13:44.006Z,99464.31
2019-06-01T15:16:10.874Z,99474.58
2019-06-01T15:18:40.069Z,99459.64
2019-06-01T15:21:06.194Z,99338.72
2019-06-01T15:23:32.838Z,99463.72
2019-06-01T15:25:59.174Z,99216.63
2019-06-01T15:28:25.223Z,99458.08
2019-06-01T15:30:52.845Z,99454.56
2019-06-01T15:33:18.865Z,99455.56
2019-06-01T15:35:45.610Z,99445.06
2019-06-01T15:38:12.018Z,99448.15
2019-06-01T15:40:38.698Z,99310.93
2019-06-01T15:43:06.556Z,99439.45
2019-06-01T15:45:33.369Z,99324.45
2019-06-01T15:47:59.834Z,99442.59
2019-06-01T15:50:26.154Z,99445.91
2019-06-01T15:52:53.157Z,99446.08
2019-06-01T15:55:19.379Z,99441.92
2019-06-01T15:57:45.337Z,99439.06
2019-06-01T16:00:12.573Z,99437.31
2019-06-01T16:02:38.835Z,99441.52
2019-06-01T16:05:06.941Z,99439.38
2019-06-01T16:07:34.439Z,99435.56
2019-06-01T16:10:07.568Z,99433.62
2019-06-01T16:12:30.734Z,99436.23
2019-06-01T16:14:57.627Z,99431.92
2019-06-01T16:17:24.236Z,99434.27
2019-06-01T16:19:51.048Z,99430.42
2019-06-01T16:22:17.967Z,99428.28
2019-06-01T16:24:45.408Z,99293.98
2019-06-01T16:27:11.506Z,99420.03
2019-06-01T16:29:38.120Z,99425.41
2019-06-01T16:32:05.037Z,99417.83
2019-06-01T16:34:31.692Z,99413.63
2019-06-01T16:36:58.861Z,99408.34
2019-06-01T16:39:25.051Z,99419.67
2019-06-01T16:41:51.064Z,99414.23
2019-06-01T16:44:19.847Z,99414.55
2019-06-01T16:46:46.399Z,99416.62
2019-06-01T16:49:13.361Z,99412.53
2019-06-01T16:51:56.754Z,99412.75
2019-06-01T16:54:23.279Z,99273.67
2019-06-01T16:56:50.302Z,99411.33
2019-06-01T16:59:18.011Z,99414.01
2019-06-01T17:01:44.164Z,99404.03
2019-06-01T17:04:10.761Z,99407.28
2019-06-01T17:06:37.657Z,99413.56
2019-06-01T17:09:07.038Z,99414.67
2019-06-01T17:11:33.942Z,99414.44
2019-06-01T17:14:00.767Z,99404.76
2019-06-01T17:16:27.194Z,99411.97
2019-06-01T17:18:54.351Z,99408.08
2019-06-01T17:21:20.547Z,99403.10
2019-06-01T17:23:46.770Z,99413.87
2019-06-01T17:26:12.825Z,99268.27
2019-06-01T17:28:39.263Z,99142.30
2019-06-01T17:31:06.376Z,99402.94
2019-06-01T17:33:33.492Z,99412.58
2019-06-01T17:36:00.622Z,99407.47
2019-06-01T17:38:26.697Z,99412.41
2019-06-01T17:40:53.388Z,99408.85
2019-06-01T17:43:20.262Z,99408.95
2019-06-01T17:45:46.576Z,99412.55
2019-06-01T17:48:24.698Z,99400.94
2019-06-01T17:50:41.852Z,99405.30
2019-06-01T17:53:08.981Z,99287.31
2019-06-01T17:55:39.479Z,99408.86
2019-06-01T17:58:09.772Z,99399.63
2019-06-01T18:00:36.156Z,99403.16
2019-06-01T18:03:05.622Z,99410.34
2019-06-01T18:05:33.435Z,99410.39
2019-06-01T18:07:59.469Z,99398.91
2019-06-01T18:10:27.613Z,99401.79
2019-06-01T18:12:53.546Z,99398.66
2019-06-01T18:15:20.001Z,99409.44
2019-06-01T18:17:47.017Z,99365.46
2019-06-01T18:20:13.323Z,99405.31
2019-06-01T18:22:39.510Z,99391.44
2019-06-01T18:25:08.588Z,99400.46
2019-06-01T18:27:39.911Z,99401.54
2019-06-01T18:30:08.884Z,99401.70
2019-06-01T18:32:36.257Z,99398.17
2019-06-01T18:35:06.992Z,99402.66
2019-06-01T18:37:35.186Z,99396.27
2019-06-01T18:40:01.483Z,99404.34
2019-06-01T18:42:28.753Z,99406.23
2019-06-01T18:44:55.342Z,99403.86
2019-06-01T18:47:31.763Z,99405.73
2019-06-01T18:49:53.019Z,99411.33
2019-06-01T18:52:20.333Z,99256.14
2019-06-01T18:54:47.147Z,99405.52
2019-06-01T18:57:20.840Z,99401.30
2019-06-01T18:59:44.461Z,99404.77
2019-06-01T19:02:11.061Z,99403.80
2019-06-01T19:04:37.441Z,99415.92
2019-06-01T19:07:24.391Z,99403.03
2019-06-01T19:09:50.539Z,99400.19
2019-06-01T19:12:17.286Z,99399.76
2019-06-01T19:14:44.467Z,99405.31
2019-06-01T19:17:12.270Z,99402.78
2019-06-01T19:19:38.565Z,99399.59
2019-06-01T19:22:05.002Z,99400.01
2019-06-01T19:24:32.203Z,99399.70
2019-06-01T19:26:58.417Z,99403.62
2019-06-01T19:29:25.060Z,99420.34
2019-06-01T19:31:51.564Z,99414.27
2019-06-01T19:34:17.765Z,99403.24
2019-06-01T19:36:45.378Z,99407.13
2019-06-01T19:39:13.257Z,99408.99
2019-06-01T19:41:44.967Z,99416.68
2019-06-01T19:44:07.548Z,99413.52
2019-06-01T19:46:33.597Z,99421.94
2019-06-01T19:48:59.753Z,99426.00
2019-06-01T19:51:26.147Z,99425.79
2019-06-01T19:53:52.340Z,99419.20
2019-06-01T19:56:20.461Z,99255.38
2019-06-01T19:58:46.396Z,99420.54
2019-06-01T20:01:14.179Z,99425.34
2019-06-01T20:03:40.356Z,99430.13
2019-06-01T20:06:07.004Z,99428.91
2019-06-01T20:08:33.383Z,99432.29
2019-06-01T20:11:00.761Z,99431.37
2019-06-01T20:16:36.268Z,99255.21
2019-06-01T20:19:04.418Z,99438.90
2019-06-01T20:21:30.757Z,99446.30
2019-06-01T20:23:57.565Z,99451.17
2019-06-01T20:26:38.994Z,99442.48
2019-06-01T20:28:52.598Z,99434.57
2019-06-01T20:31:19.876Z,99441.49
2019-06-01T20:33:46.381Z,99439.47
2019-06-01T20:36:13.915Z,99442.68
2019-06-01T20:38:40.402Z,99447.40
2019-06-01T20:41:06.728Z,99445.23
2019-06-01T20:43:33.427Z,99444.50
2019-06-01T20:45:59.809Z,99446.59
2019-06-01T20:48:26.865Z,99274.95
2019-06-01T20:50:53.157Z,99453.31
2019-06-01T20:53:19.314Z,99459.19
2019-06-01T20:55:45.741Z,99456.69
2019-06-01T20:58:13.611Z,99454.73
2019-06-01T21:04:18.163Z,99459.34
2019-06-01T21:06:44.829Z,99449.22
2019-06-01T21:09:11.240Z,99449.65
2019-06-01T21:11:37.641Z,99448.33
2019-06-01T21:20:26.769Z,99447.56
2019-06-01T21:22:49.270Z,99449.10
2019-06-01T21:25:16.696Z,99461.70
2019-06-01T21:27:43.336Z,99444.30
2019-06-01T21:30:11.410Z,99443.52
2019-06-01T21:32:37.941Z,99444.26
2019-06-01T21:35:04.828Z,99268.27
2019-06-01T21:37:31.170Z,99457.61
2019-06-01T21:39:57.768Z,99454.77
2019-06-01T21:42:25.990Z,99458.45
2019-06-01T21:44:52.283Z,99457.34
2019-06-01T21:47:19.608Z,99456.56
2019-06-01T21:49:45.767Z,99458.92
2019-06-01T21:52:12.006Z,99458.90
2019-06-01T21:54:38.740Z,99453.55
2019-06-01T21:57:04.786Z,99441.81
2019-06-01T21:59:30.885Z,99449.06
2019-06-01T22:01:57.347Z,99443.61
2019-06-01T22:04:25.345Z,99442.64
2019-06-01T22:06:51.770Z,99452.17
2019-06-01T22:19:07.694Z,99259.53
2019-06-01T22:21:34.208Z,99448.31
2019-06-01T22:24:00.638Z,99445.69
2019-06-01T22:26:28.368Z,99246.33
2019-06-01T22:28:54.799Z,99441.41
2019-06-01T22:31:20.844Z,99447.23
2019-06-01T22:33:46.908Z,99440.12
2019-06-01T22:36:13.459Z,99442.27
2019-06-01T22:38:39.771Z,99438.33
2019-06-01T22:41:06.216Z,99438.09
2019-06-01T22:43:45.800Z,99440.68
2019-06-01T22:46:00.619Z,99447.73
2019-06-01T22:48:26.723Z,99437.81
2019-06-01T22:50:53.076Z,99437.56
2019-06-01T22:53:19.876Z,99445.66
2019-06-01T22:55:46.190Z,99440.49
2019-06-01T22:58:12.345Z,99439.80
2019-06-01T23:00:38.372Z,99443.20
2019-06-01T23:03:05.048Z,99435.30
2019-06-01T23:05:31.320Z,99442.53
2019-06-01T23:07:57.734Z,99442.38
2019-06-01T23:10:29.512Z,99434.84
2019-06-01T23:12:52.665Z,99443.48
2019-06-01T23:15:18.817Z,99439.78
2019-06-01T23:17:45.299Z,99429.81
2019-06-01T23:20:11.777Z,99435.77
2019-06-01T23:22:37.822Z,99428.13
2019-06-01T23:25:04.889Z,99437.55
2019-06-01T23:27:31.199Z,99436.42
2019-06-01T23:29:58.712Z,99434.66
2019-06-01T23:32:26.342Z,99431.59
2019-06-01T23:34:52.981Z,99437.23
2019-06-01T23:37:19.173Z,99431.49
2019-06-01T23:39:45.353Z,99422.69
2019-06-01T23:42:11.412Z,99421.66
2019-06-01T23:44:37.607Z,99421.73
2019-06-01T23:47:04.355Z,99425.08
2019-06-01T23:49:31.338Z,99424.05
2019-06-01T23:51:57.514Z,99417.05
2019-06-01T23:54:23.652Z,99418.88
2019-06-01T23:56:49.826Z,99403.77
2019-06-01T23:59:15.851Z,99408.30
